sensor_id;sensor_type;location;lat;lon;timestamp;P1;durP1;ratioP1;P2;durP2;ratioP2
44766;SDS011;30487;48.716;9.272;2022-12-07T00:02:24;6.65;;;4.28;;
44766;SDS011;30487;48.716;9.272;2022-12-07T00:04:50;6.05;;;3.85;;
44766;SDS011;30487;48.716;9.272;2022-12-07T00:07:16;8.27;;;4.50;;
44766;SDS011;30487;48.716;9.272;2022-12-07T00:09:41;7.40;;;4.13;;
44766;SDS011;30487;48.716;9.272;2022-12-07T00:12:07;7.75;;;4.35;;
44766;SDS011;30487;48.716;9.272;2022-12-07T00:14:33;8.25;;;4.47;;
44766;SDS011;30487;48.716;9.272;2022-12-07T00:16:58;9.18;;;4.53;;
44766;SDS011;30487;48.716;9.272;2022-12-07T00:19:24;10.65;;;4.90;;
44766;SDS011;30487;48.716;9.272;2022-12-07T00:21:49;9.40;;;4.95;;
44766;SDS011;30487;48.716;9.272;2022-12-07T00:24:15;8.73;;;4.70;;
44766;SDS011;30487;48.716;9.272;2022-12-07T00:26:41;8.00;;;5.05;;
44766;SDS011;30487;48.716;9.272;2022-12-07T00:29:17;9.20;;;4.88;;
44766;SDS011;30487;48.716;9.272;2022-12-07T00:31:45;9.18;;;4.85;;
44766;SDS011;30487;48.716;9.272;2022-12-07T00:34:12;8.55;;;4.68;;
44766;SDS011;30487;48.716;9.272;2022-12-07T00:36:39;7.85;;;4.22;;
44766;SDS011;30487;48.716;9.272;2022-12-07T00:39:05;10.07;;;4.97;;
44766;SDS011;30487;48.716;9.272;2022-12-07T00:41:30;8.50;;;4.88;;
44766;SDS011;30487;48.716;9.272;2022-12-07T00:43:56;7.93;;;4.38;;
44766;SDS011;30487;48.716;9.272;2022-12-07T00:46:22;9.13;;;4.90;;
44766;SDS011;30487;48.716;9.272;2022-12-07T00:48:49;8.77;;;4.78;;
44766;SDS011;30487;48.716;9.272;2022-12-07T00:51:16;9.40;;;4.70;;
44766;SDS011;30487;48.716;9.272;2022-12-07T00:53:43;9.40;;;4.80;;
44766;SDS011;30487;48.716;9.272;2022-12-07T00:56:10;8.80;;;4.93;;
44766;SDS011;30487;48.716;9.272;2022-12-07T00:58:37;9.80;;;5.40;;
44766;SDS011;30487;48.716;9.272;2022-12-07T01:01:04;9.98;;;4.85;;
44766;SDS011;30487;48.716;9.272;2022-12-07T01:03:30;8.90;;;4.97;;
44766;SDS011;30487;48.716;9.272;2022-12-07T01:05:56;9.13;;;5.28;;
44766;SDS011;30487;48.716;9.272;2022-12-07T01:08:22;10.88;;;5.75;;
44766;SDS011;30487;48.716;9.272;2022-12-07T01:10:56;12.68;;;5.97;;
44766;SDS011;30487;48.716;9.272;2022-12-07T01:13:30;9.73;;;5.43;;
44766;SDS011;30487;48.716;9.272;2022-12-07T01:16:00;9.18;;;5.13;;
44766;SDS011;30487;48.716;9.272;2022-12-07T01:18:28;10.88;;;5.78;;
44766;SDS011;30487;48.716;9.272;2022-12-07T01:21:11;11.15;;;5.82;;
44766;SDS011;30487;48.716;9.272;2022-12-07T01:23:38;8.57;;;4.55;;
44766;SDS011;30487;48.716;9.272;2022-12-07T01:26:05;9.15;;;5.43;;
44766;SDS011;30487;48.716;9.272;2022-12-07T01:28:34;9.75;;;5.53;;
44766;SDS011;30487;48.716;9.272;2022-12-07T01:33:28;9.93;;;5.30;;
44766;SDS011;30487;48.716;9.272;2022-12-07T01:36:03;11.38;;;5.60;;
44766;SDS011;30487;48.716;9.272;2022-12-07T01:38:30;11.52;;;6.28;;
44766;SDS011;30487;48.716;9.272;2022-12-07T01:40:56;10.50;;;5.50;;
44766;SDS011;30487;48.716;9.272;2022-12-07T01:43:22;10.20;;;5.47;;
44766;SDS011;30487;48.716;9.272;2022-12-07T01:45:50;11.18;;;6.22;;
44766;SDS011;30487;48.716;9.272;2022-12-07T01:48:16;11.63;;;6.50;;
44766;SDS011;30487;48.716;9.272;2022-12-07T01:50:46;11.07;;;6.10;;
44766;SDS011;30487;48.716;9.272;2022-12-07T01:53:13;12.88;;;6.47;;
44766;SDS011;30487;48.716;9.272;2022-12-07T01:55:40;11.10;;;5.93;;
44766;SDS011;30487;48.716;9.272;2022-12-07T01:58:09;11.32;;;6.40;;
44766;SDS011;30487;48.716;9.272;2022-12-07T02:00:37;11.98;;;5.88;;
44766;SDS011;30487;48.716;9.272;2022-12-07T02:03:05;10.65;;;5.95;;
44766;SDS011;30487;48.716;9.272;2022-12-07T02:05:37;11.93;;;5.82;;
44766;SDS011;30487;48.716;9.272;2022-12-07T02:08:05;9.95;;;5.60;;
44766;SDS011;30487;48.716;9.272;2022-12-07T02:10:32;10.57;;;5.95;;
44766;SDS011;30487;48.716;9.272;2022-12-07T02:13:00;10.63;;;5.97;;
44766;SDS011;30487;48.716;9.272;2022-12-07T02:18:40;15.90;;;6.20;;
44766;SDS011;30487;48.716;9.272;2022-12-07T02:21:15;11.60;;;6.35;;
44766;SDS011;30487;48.716;9.272;2022-12-07T02:26:55;12.35;;;6.15;;
44766;SDS011;30487;48.716;9.272;2022-12-07T02:29:45;13.18;;;6.40;;
44766;SDS011;30487;48.716;9.272;2022-12-07T02:32:38;13.73;;;6.57;;
44766;SDS011;30487;48.716;9.272;2022-12-07T02:35:12;11.93;;;6.10;;
44766;SDS011;30487;48.716;9.272;2022-12-07T02:37:50;12.20;;;6.13;;
44766;SDS011;30487;48.716;9.272;2022-12-07T02:40:31;10.80;;;6.20;;
44766;SDS011;30487;48.716;9.272;2022-12-07T02:45:41;12.07;;;5.90;;
44766;SDS011;30487;48.716;9.272;2022-12-07T02:48:09;13.77;;;6.50;;
44766;SDS011;30487;48.716;9.272;2022-12-07T02:50:36;12.05;;;6.15;;
44766;SDS011;30487;48.716;9.272;2022-12-07T02:53:02;13.55;;;6.45;;
44766;SDS011;30487;48.716;9.272;2022-12-07T02:55:29;13.70;;;6.38;;
44766;SDS011;30487;48.716;9.272;2022-12-07T02:58:10;12.27;;;6.65;;
44766;SDS011;30487;48.716;9.272;2022-12-07T03:00:54;13.90;;;6.80;;
44766;SDS011;30487;48.716;9.272;2022-12-07T03:03:41;13.20;;;6.20;;
44766;SDS011;30487;48.716;9.272;2022-12-07T03:06:16;12.27;;;6.68;;
44766;SDS011;30487;48.716;9.272;2022-12-07T03:08:54;12.00;;;6.50;;
44766;SDS011;30487;48.716;9.272;2022-12-07T03:11:55;11.45;;;6.30;;
44766;SDS011;30487;48.716;9.272;2022-12-07T03:14:30;12.55;;;6.72;;
44766;SDS011;30487;48.716;9.272;2022-12-07T03:17:04;13.35;;;6.88;;
44766;SDS011;30487;48.716;9.272;2022-12-07T03:19:37;15.13;;;6.50;;
44766;SDS011;30487;48.716;9.272;2022-12-07T03:22:08;13.48;;;6.50;;
44766;SDS011;30487;48.716;9.272;2022-12-07T03:24:39;12.93;;;6.57;;
44766;SDS011;30487;48.716;9.272;2022-12-07T03:27:14;15.93;;;6.85;;
44766;SDS011;30487;48.716;9.272;2022-12-07T03:32:19;13.00;;;6.10;;
44766;SDS011;30487;48.716;9.272;2022-12-07T03:34:59;12.57;;;6.07;;
44766;SDS011;30487;48.716;9.272;2022-12-07T03:37:52;12.18;;;6.13;;
44766;SDS011;30487;48.716;9.272;2022-12-07T03:40:26;12.17;;;6.17;;
44766;SDS011;30487;48.716;9.272;2022-12-07T03:42:57;10.77;;;5.82;;
44766;SDS011;30487;48.716;9.272;2022-12-07T03:45:37;11.55;;;6.35;;
44766;SDS011;30487;48.716;9.272;2022-12-07T03:50:42;12.75;;;6.72;;
44766;SDS011;30487;48.716;9.272;2022-12-07T03:53:15;14.80;;;6.70;;
44766;SDS011;30487;48.716;9.272;2022-12-07T03:55:45;11.65;;;6.18;;
44766;SDS011;30487;48.716;9.272;2022-12-07T03:58:16;14.07;;;6.65;;
44766;SDS011;30487;48.716;9.272;2022-12-07T04:00:44;10.93;;;5.97;;
44766;SDS011;30487;48.716;9.272;2022-12-07T04:03:10;13.38;;;6.90;;
44766;SDS011;30487;48.716;9.272;2022-12-07T04:05:36;12.32;;;5.80;;
44766;SDS011;30487;48.716;9.272;2022-12-07T04:08:03;13.20;;;6.75;;
44766;SDS011;30487;48.716;9.272;2022-12-07T04:10:28;11.88;;;6.05;;
44766;SDS011;30487;48.716;9.272;2022-12-07T04:12:54;13.70;;;6.63;;
44766;SDS011;30487;48.716;9.272;2022-12-07T04:15:20;11.55;;;6.22;;
44766;SDS011;30487;48.716;9.272;2022-12-07T04:17:45;12.88;;;6.60;;
44766;SDS011;30487;48.716;9.272;2022-12-07T04:20:11;10.32;;;5.68;;
44766;SDS011;30487;48.716;9.272;2022-12-07T04:22:37;11.07;;;5.97;;
44766;SDS011;30487;48.716;9.272;2022-12-07T04:25:03;11.75;;;6.28;;
44766;SDS011;30487;48.716;9.272;2022-12-07T04:27:28;12.43;;;6.43;;
44766;SDS011;30487;48.716;9.272;2022-12-07T04:29:54;10.93;;;5.72;;
44766;SDS011;30487;48.716;9.272;2022-12-07T04:32:20;12.50;;;5.60;;
44766;SDS011;30487;48.716;9.272;2022-12-07T04:34:46;10.88;;;6.20;;
44766;SDS011;30487;48.716;9.272;2022-12-07T04:37:12;12.70;;;6.53;;
44766;SDS011;30487;48.716;9.272;2022-12-07T04:39:37;12.27;;;6.05;;
44766;SDS011;30487;48.716;9.272;2022-12-07T04:42:03;13.50;;;6.75;;
44766;SDS011;30487;48.716;9.272;2022-12-07T04:44:29;13.30;;;6.13;;
44766;SDS011;30487;48.716;9.272;2022-12-07T04:46:55;13.80;;;6.82;;
44766;SDS011;30487;48.716;9.272;2022-12-07T04:49:22;10.85;;;6.22;;
44766;SDS011;30487;48.716;9.272;2022-12-07T04:51:48;11.10;;;6.07;;
44766;SDS011;30487;48.716;9.272;2022-12-07T04:54:14;12.25;;;5.95;;
44766;SDS011;30487;48.716;9.272;2022-12-07T04:56:40;11.63;;;6.05;;
44766;SDS011;30487;48.716;9.272;2022-12-07T04:59:07;13.15;;;6.10;;
44766;SDS011;30487;48.716;9.272;2022-12-07T05:01:34;12.45;;;6.32;;
44766;SDS011;30487;48.716;9.272;2022-12-07T05:03:59;14.65;;;6.43;;
44766;SDS011;30487;48.716;9.272;2022-12-07T05:06:25;13.98;;;6.57;;
44766;SDS011;30487;48.716;9.272;2022-12-07T05:08:50;11.65;;;6.38;;
44766;SDS011;30487;48.716;9.272;2022-12-07T05:11:16;12.15;;;6.03;;
44766;SDS011;30487;48.716;9.272;2022-12-07T05:14:01;12.75;;;6.25;;
44766;SDS011;30487;48.716;9.272;2022-12-07T05:16:28;11.73;;;5.75;;
44766;SDS011;30487;48.716;9.272;2022-12-07T05:18:53;9.48;;;5.00;;
44766;SDS011;30487;48.716;9.272;2022-12-07T05:21:19;12.23;;;5.65;;
44766;SDS011;30487;48.716;9.272;2022-12-07T05:23:44;13.75;;;5.57;;
44766;SDS011;30487;48.716;9.272;2022-12-07T05:26:10;11.40;;;5.82;;
44766;SDS011;30487;48.716;9.272;2022-12-07T05:28:36;13.35;;;5.78;;
44766;SDS011;30487;48.716;9.272;2022-12-07T05:31:01;12.10;;;6.13;;
44766;SDS011;30487;48.716;9.272;2022-12-07T05:33:28;11.98;;;5.90;;
44766;SDS011;30487;48.716;9.272;2022-12-07T05:35:53;9.98;;;5.57;;
44766;SDS011;30487;48.716;9.272;2022-12-07T05:38:19;9.75;;;4.97;;
44766;SDS011;30487;48.716;9.272;2022-12-07T05:40:44;9.93;;;5.47;;
44766;SDS011;30487;48.716;9.272;2022-12-07T05:43:10;12.18;;;6.25;;
44766;SDS011;30487;48.716;9.272;2022-12-07T05:45:36;10.48;;;5.82;;
44766;SDS011;30487;48.716;9.272;2022-12-07T05:48:01;9.77;;;5.45;;
44766;SDS011;30487;48.716;9.272;2022-12-07T05:50:27;11.88;;;6.60;;
44766;SDS011;30487;48.716;9.272;2022-12-07T05:52:53;13.10;;;5.95;;
44766;SDS011;30487;48.716;9.272;2022-12-07T05:55:18;12.98;;;6.38;;
44766;SDS011;30487;48.716;9.272;2022-12-07T05:57:44;11.35;;;5.88;;
44766;SDS011;30487;48.716;9.272;2022-12-07T06:00:30;14.20;;;5.93;;
44766;SDS011;30487;48.716;9.272;2022-12-07T06:02:56;13.70;;;6.50;;
44766;SDS011;30487;48.716;9.272;2022-12-07T06:05:22;13.45;;;6.15;;
44766;SDS011;30487;48.716;9.272;2022-12-07T06:07:48;11.73;;;6.18;;
44766;SDS011;30487;48.716;9.272;2022-12-07T06:10:13;10.57;;;5.82;;
44766;SDS011;30487;48.716;9.272;2022-12-07T06:12:39;13.70;;;5.90;;
44766;SDS011;30487;48.716;9.272;2022-12-07T06:15:07;13.18;;;5.45;;
44766;SDS011;30487;48.716;9.272;2022-12-07T06:17:34;14.82;;;5.78;;
44766;SDS011;30487;48.716;9.272;2022-12-07T06:19:59;14.07;;;6.07;;
44766;SDS011;30487;48.716;9.272;2022-12-07T06:22:25;11.90;;;6.25;;
44766;SDS011;30487;48.716;9.272;2022-12-07T06:24:50;10.77;;;6.00;;
44766;SDS011;30487;48.716;9.272;2022-12-07T06:27:16;12.23;;;6.22;;
44766;SDS011;30487;48.716;9.272;2022-12-07T06:29:42;12.93;;;6.80;;
44766;SDS011;30487;48.716;9.272;2022-12-07T06:32:08;10.50;;;5.90;;
44766;SDS011;30487;48.716;9.272;2022-12-07T06:34:34;15.95;;;7.00;;
44766;SDS011;30487;48.716;9.272;2022-12-07T06:36:59;17.20;;;6.47;;
44766;SDS011;30487;48.716;9.272;2022-12-07T06:39:25;12.10;;;5.82;;
44766;SDS011;30487;48.716;9.272;2022-12-07T06:41:52;16.05;;;6.65;;
44766;SDS011;30487;48.716;9.272;2022-12-07T06:44:18;10.90;;;5.90;;
44766;SDS011;30487;48.716;9.272;2022-12-07T06:46:45;14.00;;;6.47;;
44766;SDS011;30487;48.716;9.272;2022-12-07T06:49:10;12.98;;;5.95;;
44766;SDS011;30487;48.716;9.272;2022-12-07T06:51:36;13.95;;;6.10;;
44766;SDS011;30487;48.716;9.272;2022-12-07T06:54:05;13.43;;;5.50;;
44766;SDS011;30487;48.716;9.272;2022-12-07T06:56:32;13.20;;;5.65;;
44766;SDS011;30487;48.716;9.272;2022-12-07T06:58:57;12.05;;;5.30;;
44766;SDS011;30487;48.716;9.272;2022-12-07T07:01:23;11.90;;;5.70;;
44766;SDS011;30487;48.716;9.272;2022-12-07T07:03:49;10.57;;;5.28;;
44766;SDS011;30487;48.716;9.272;2022-12-07T07:06:14;10.55;;;5.47;;
44766;SDS011;30487;48.716;9.272;2022-12-07T07:08:40;10.10;;;4.93;;
44766;SDS011;30487;48.716;9.272;2022-12-07T07:11:06;11.35;;;5.35;;
44766;SDS011;30487;48.716;9.272;2022-12-07T07:13:34;10.93;;;5.03;;
44766;SDS011;30487;48.716;9.272;2022-12-07T07:15:59;10.63;;;4.88;;
44766;SDS011;30487;48.716;9.272;2022-12-07T07:18:25;9.75;;;4.50;;
44766;SDS011;30487;48.716;9.272;2022-12-07T07:20:51;11.60;;;5.03;;
44766;SDS011;30487;48.716;9.272;2022-12-07T07:23:17;10.32;;;4.57;;
44766;SDS011;30487;48.716;9.272;2022-12-07T07:25:44;10.05;;;4.85;;
44766;SDS011;30487;48.716;9.272;2022-12-07T07:28:10;11.05;;;5.05;;
44766;SDS011;30487;48.716;9.272;2022-12-07T07:30:35;9.27;;;4.60;;
44766;SDS011;30487;48.716;9.272;2022-12-07T07:33:02;9.13;;;4.72;;
44766;SDS011;30487;48.716;9.272;2022-12-07T07:35:29;10.13;;;5.10;;
44766;SDS011;30487;48.716;9.272;2022-12-07T07:37:57;9.30;;;4.50;;
44766;SDS011;30487;48.716;9.272;2022-12-07T07:40:22;11.15;;;5.10;;
44766;SDS011;30487;48.716;9.272;2022-12-07T07:42:50;11.52;;;4.75;;
44766;SDS011;30487;48.716;9.272;2022-12-07T07:45:17;9.38;;;4.65;;
44766;SDS011;30487;48.716;9.272;2022-12-07T07:47:44;10.48;;;4.45;;
44766;SDS011;30487;48.716;9.272;2022-12-07T07:50:10;12.00;;;5.15;;
44766;SDS011;30487;48.716;9.272;2022-12-07T07:52:36;10.52;;;5.13;;
44766;SDS011;30487;48.716;9.272;2022-12-07T07:55:02;13.45;;;6.05;;
44766;SDS011;30487;48.716;9.272;2022-12-07T07:57:28;10.10;;;5.72;;
44766;SDS011;30487;48.716;9.272;2022-12-07T07:59:53;10.45;;;5.22;;
44766;SDS011;30487;48.716;9.272;2022-12-07T08:02:21;9.27;;;5.43;;
44766;SDS011;30487;48.716;9.272;2022-12-07T08:04:47;13.25;;;5.22;;
44766;SDS011;30487;48.716;9.272;2022-12-07T08:07:13;11.70;;;5.60;;
44766;SDS011;30487;48.716;9.272;2022-12-07T08:09:39;11.98;;;6.22;;
44766;SDS011;30487;48.716;9.272;2022-12-07T08:12:06;11.45;;;6.00;;
44766;SDS011;30487;48.716;9.272;2022-12-07T08:14:32;10.85;;;5.53;;
44766;SDS011;30487;48.716;9.272;2022-12-07T08:16:57;11.27;;;5.25;;
44766;SDS011;30487;48.716;9.272;2022-12-07T08:19:23;10.00;;;5.40;;
44766;SDS011;30487;48.716;9.272;2022-12-07T08:21:49;9.75;;;5.07;;
44766;SDS011;30487;48.716;9.272;2022-12-07T08:24:14;11.10;;;5.60;;
44766;SDS011;30487;48.716;9.272;2022-12-07T08:26:40;9.75;;;5.10;;
44766;SDS011;30487;48.716;9.272;2022-12-07T08:29:06;9.88;;;5.22;;
44766;SDS011;30487;48.716;9.272;2022-12-07T08:31:32;9.23;;;5.20;;
44766;SDS011;30487;48.716;9.272;2022-12-07T08:33:57;9.52;;;5.40;;
44766;SDS011;30487;48.716;9.272;2022-12-07T08:36:23;11.75;;;5.55;;
44766;SDS011;30487;48.716;9.272;2022-12-07T08:38:49;10.35;;;5.68;;
44766;SDS011;30487;48.716;9.272;2022-12-07T08:41:15;11.55;;;5.80;;
44766;SDS011;30487;48.716;9.272;2022-12-07T08:43:41;11.27;;;5.60;;
44766;SDS011;30487;48.716;9.272;2022-12-07T08:51:31;13.18;;;6.22;;
44766;SDS011;30487;48.716;9.272;2022-12-07T08:53:57;10.20;;;5.47;;
44766;SDS011;30487;48.716;9.272;2022-12-07T08:56:25;10.90;;;5.22;;
44766;SDS011;30487;48.716;9.272;2022-12-07T08:58:51;11.45;;;4.68;;
44766;SDS011;30487;48.716;9.272;2022-12-07T09:01:17;12.00;;;4.97;;
44766;SDS011;30487;48.716;9.272;2022-12-07T09:03:43;8.80;;;4.80;;
44766;SDS011;30487;48.716;9.272;2022-12-07T09:06:09;10.82;;;4.43;;
44766;SDS011;30487;48.716;9.272;2022-12-07T09:08:36;7.68;;;4.20;;
44766;SDS011;30487;48.716;9.272;2022-12-07T09:11:08;9.73;;;4.70;;
44766;SDS011;30487;48.716;9.272;2022-12-07T09:13:33;10.85;;;4.72;;
44766;SDS011;30487;48.716;9.272;2022-12-07T09:15:59;6.32;;;3.70;;
44766;SDS011;30487;48.716;9.272;2022-12-07T09:18:24;9.55;;;4.38;;
44766;SDS011;30487;48.716;9.272;2022-12-07T09:20:50;9.18;;;4.45;;
44766;SDS011;30487;48.716;9.272;2022-12-07T09:23:16;6.95;;;3.90;;
44766;SDS011;30487;48.716;9.272;2022-12-07T09:25:42;8.02;;;4.32;;
44766;SDS011;30487;48.716;9.272;2022-12-07T09:28:08;10.05;;;4.70;;
44766;SDS011;30487;48.716;9.272;2022-12-07T09:30:34;8.10;;;4.40;;
44766;SDS011;30487;48.716;9.272;2022-12-07T09:33:00;8.40;;;3.97;;
44766;SDS011;30487;48.716;9.272;2022-12-07T09:35:26;8.13;;;3.92;;
44766;SDS011;30487;48.716;9.272;2022-12-07T09:37:52;9.75;;;4.32;;
44766;SDS011;30487;48.716;9.272;2022-12-07T09:40:20;9.27;;;4.03;;
44766;SDS011;30487;48.716;9.272;2022-12-07T09:42:48;8.07;;;3.95;;
44766;SDS011;30487;48.716;9.272;2022-12-07T09:45:18;8.02;;;4.00;;
44766;SDS011;30487;48.716;9.272;2022-12-07T09:47:45;8.00;;;3.60;;
44766;SDS011;30487;48.716;9.272;2022-12-07T09:50:14;9.38;;;4.47;;
44766;SDS011;30487;48.716;9.272;2022-12-07T09:52:43;7.78;;;3.78;;
44766;SDS011;30487;48.716;9.272;2022-12-07T09:55:19;8.02;;;3.78;;
44766;SDS011;30487;48.716;9.272;2022-12-07T09:57:49;7.35;;;3.63;;
44766;SDS011;30487;48.716;9.272;2022-12-07T10:00:19;8.50;;;4.32;;
44766;SDS011;30487;48.716;9.272;2022-12-07T10:02:49;7.43;;;4.05;;
44766;SDS011;30487;48.716;9.272;2022-12-07T10:05:22;6.75;;;4.05;;
44766;SDS011;30487;48.716;9.272;2022-12-07T10:07:56;6.72;;;3.88;;
44766;SDS011;30487;48.716;9.272;2022-12-07T10:10:33;8.18;;;4.30;;
44766;SDS011;30487;48.716;9.272;2022-12-07T10:13:01;7.40;;;3.55;;
44766;SDS011;30487;48.716;9.272;2022-12-07T10:18:30;7.95;;;4.20;;
44766;SDS011;30487;48.716;9.272;2022-12-07T10:23:35;6.40;;;3.80;;
44766;SDS011;30487;48.716;9.272;2022-12-07T10:28:59;10.45;;;3.90;;
44766;SDS011;30487;48.716;9.272;2022-12-07T10:31:44;7.28;;;3.75;;
44766;SDS011;30487;48.716;9.272;2022-12-07T10:34:21;8.95;;;4.18;;
44766;SDS011;30487;48.716;9.272;2022-12-07T10:37:13;7.53;;;3.55;;
44766;SDS011;30487;48.716;9.272;2022-12-07T10:39:41;7.85;;;3.95;;
44766;SDS011;30487;48.716;9.272;2022-12-07T10:42:18;7.22;;;3.70;;
44766;SDS011;30487;48.716;9.272;2022-12-07T10:44:48;8.73;;;4.00;;
44766;SDS011;30487;48.716;9.272;2022-12-07T11:03:24;6.90;;;3.70;;
44766;SDS011;30487;48.716;9.272;2022-12-07T11:11:23;11.55;;;3.70;;
44766;SDS011;30487;48.716;9.272;2022-12-07T11:16:49;7.88;;;3.90;;
44766;SDS011;30487;48.716;9.272;2022-12-07T11:19:32;6.82;;;3.53;;
44766;SDS011;30487;48.716;9.272;2022-12-07T11:22:23;10.25;;;4.03;;
44766;SDS011;30487;48.716;9.272;2022-12-07T11:27:48;8.77;;;3.38;;
44766;SDS011;30487;48.716;9.272;2022-12-07T11:30:28;7.90;;;3.55;;
44766;SDS011;30487;48.716;9.272;2022-12-07T11:39:00;6.63;;;3.30;;
44766;SDS011;30487;48.716;9.272;2022-12-07T11:41:34;6.82;;;3.10;;
44766;SDS011;30487;48.716;9.272;2022-12-07T11:44:05;6.65;;;3.20;;
44766;SDS011;30487;48.716;9.272;2022-12-07T11:46:40;6.28;;;3.28;;
44766;SDS011;30487;48.716;9.272;2022-12-07T11:52:08;7.47;;;3.58;;
44766;SDS011;30487;48.716;9.272;2022-12-07T11:54:52;6.40;;;3.20;;
44766;SDS011;30487;48.716;9.272;2022-12-07T11:57:32;6.85;;;3.13;;
44766;SDS011;30487;48.716;9.272;2022-12-07T12:00:05;5.75;;;3.20;;
44766;SDS011;30487;48.716;9.272;2022-12-07T12:02:53;7.88;;;2.85;;
44766;SDS011;30487;48.716;9.272;2022-12-07T12:05:25;6.15;;;3.30;;
44766;SDS011;30487;48.716;9.272;2022-12-07T12:08:05;6.70;;;3.30;;
44766;SDS011;30487;48.716;9.272;2022-12-07T12:21:04;5.43;;;2.97;;
44766;SDS011;30487;48.716;9.272;2022-12-07T12:26:25;8.45;;;3.10;;
44766;SDS011;30487;48.716;9.272;2022-12-07T12:28:56;6.35;;;3.47;;
44766;SDS011;30487;48.716;9.272;2022-12-07T12:33:56;6.20;;;3.08;;
44766;SDS011;30487;48.716;9.272;2022-12-07T12:51:57;7.82;;;2.97;;
44766;SDS011;30487;48.716;9.272;2022-12-07T12:54:25;7.00;;;3.55;;
44766;SDS011;30487;48.716;9.272;2022-12-07T13:02:16;5.57;;;2.78;;
44766;SDS011;30487;48.716;9.272;2022-12-07T13:04:56;7.10;;;2.95;;
44766;SDS011;30487;48.716;9.272;2022-12-07T13:12:59;5.93;;;2.45;;
44766;SDS011;30487;48.716;9.272;2022-12-07T13:15:41;5.18;;;2.88;;
44766;SDS011;30487;48.716;9.272;2022-12-07T13:26:15;5.38;;;3.08;;
44766;SDS011;30487;48.716;9.272;2022-12-07T13:31:35;5.75;;;3.40;;
44766;SDS011;30487;48.716;9.272;2022-12-07T13:34:03;7.03;;;3.47;;
44766;SDS011;30487;48.716;9.272;2022-12-07T13:36:49;5.13;;;3.00;;
44766;SDS011;30487;48.716;9.272;2022-12-07T13:39:17;7.25;;;3.20;;
44766;SDS011;30487;48.716;9.272;2022-12-07T13:41:44;5.05;;;2.75;;
44766;SDS011;30487;48.716;9.272;2022-12-07T13:44:14;5.25;;;2.92;;
44766;SDS011;30487;48.716;9.272;2022-12-07T13:49:32;4.72;;;2.60;;
44766;SDS011;30487;48.716;9.272;2022-12-07T13:52:19;7.25;;;2.80;;
44766;SDS011;30487;48.716;9.272;2022-12-07T13:54:48;4.18;;;2.42;;
44766;SDS011;30487;48.716;9.272;2022-12-07T13:57:25;4.95;;;2.42;;
44766;SDS011;30487;48.716;9.272;2022-12-07T13:59:52;5.45;;;2.97;;
44766;SDS011;30487;48.716;9.272;2022-12-07T14:05:12;13.32;;;4.22;;
44766;SDS011;30487;48.716;9.272;2022-12-07T14:07:53;6.68;;;3.78;;
44766;SDS011;30487;48.716;9.272;2022-12-07T14:10:24;5.75;;;3.42;;
44766;SDS011;30487;48.716;9.272;2022-12-07T14:12:50;8.75;;;3.30;;
44766;SDS011;30487;48.716;9.272;2022-12-07T14:15:22;7.05;;;3.50;;
44766;SDS011;30487;48.716;9.272;2022-12-07T14:17:52;6.47;;;2.65;;
44766;SDS011;30487;48.716;9.272;2022-12-07T14:20:31;7.20;;;2.90;;
44766;SDS011;30487;48.716;9.272;2022-12-07T14:23:02;5.68;;;2.88;;
44766;SDS011;30487;48.716;9.272;2022-12-07T14:25:44;4.93;;;2.72;;
44766;SDS011;30487;48.716;9.272;2022-12-07T14:28:33;7.78;;;2.85;;
44766;SDS011;30487;48.716;9.272;2022-12-07T14:30:59;4.97;;;2.40;;
44766;SDS011;30487;48.716;9.272;2022-12-07T14:33:25;4.82;;;2.15;;
44766;SDS011;30487;48.716;9.272;2022-12-07T14:35:52;3.65;;;2.00;;
44766;SDS011;30487;48.716;9.272;2022-12-07T14:38:22;4.95;;;1.85;;
44766;SDS011;30487;48.716;9.272;2022-12-07T14:40:49;3.80;;;1.85;;
44766;SDS011;30487;48.716;9.272;2022-12-07T14:43:17;4.60;;;1.90;;
44766;SDS011;30487;48.716;9.272;2022-12-07T14:45:43;4.97;;;1.92;;
44766;SDS011;30487;48.716;9.272;2022-12-07T14:48:13;3.47;;;1.90;;
44766;SDS011;30487;48.716;9.272;2022-12-07T14:50:41;4.20;;;2.17;;
44766;SDS011;30487;48.716;9.272;2022-12-07T14:53:12;4.40;;;2.20;;
44766;SDS011;30487;48.716;9.272;2022-12-07T14:55:39;4.60;;;2.17;;
44766;SDS011;30487;48.716;9.272;2022-12-07T14:58:05;4.35;;;1.80;;
44766;SDS011;30487;48.716;9.272;2022-12-07T15:00:31;4.50;;;2.30;;
44766;SDS011;30487;48.716;9.272;2022-12-07T15:02:59;3.63;;;1.95;;
44766;SDS011;30487;48.716;9.272;2022-12-07T15:05:24;5.32;;;2.20;;
44766;SDS011;30487;48.716;9.272;2022-12-07T15:07:50;3.67;;;2.00;;
44766;SDS011;30487;48.716;9.272;2022-12-07T15:10:21;4.53;;;2.30;;
44766;SDS011;30487;48.716;9.272;2022-12-07T15:12:48;4.53;;;2.30;;
44766;SDS011;30487;48.716;9.272;2022-12-07T15:15:14;5.65;;;2.30;;
44766;SDS011;30487;48.716;9.272;2022-12-07T15:17:40;3.88;;;2.10;;
44766;SDS011;30487;48.716;9.272;2022-12-07T15:20:08;4.30;;;2.15;;
44766;SDS011;30487;48.716;9.272;2022-12-07T15:22:37;5.10;;;2.38;;
44766;SDS011;30487;48.716;9.272;2022-12-07T15:25:03;4.55;;;2.30;;
44766;SDS011;30487;48.716;9.272;2022-12-07T15:27:30;4.60;;;2.58;;
44766;SDS011;30487;48.716;9.272;2022-12-07T15:29:55;4.22;;;2.42;;
44766;SDS011;30487;48.716;9.272;2022-12-07T15:32:21;4.82;;;2.53;;
44766;SDS011;30487;48.716;9.272;2022-12-07T15:34:48;4.55;;;2.40;;
44766;SDS011;30487;48.716;9.272;2022-12-07T15:37:15;5.38;;;2.85;;
44766;SDS011;30487;48.716;9.272;2022-12-07T15:39:41;6.07;;;2.70;;
44766;SDS011;30487;48.716;9.272;2022-12-07T15:42:06;5.18;;;2.80;;
44766;SDS011;30487;48.716;9.272;2022-12-07T15:44:32;5.53;;;2.80;;
44766;SDS011;30487;48.716;9.272;2022-12-07T15:47:17;6.22;;;2.88;;
44766;SDS011;30487;48.716;9.272;2022-12-07T15:49:42;6.05;;;2.90;;
44766;SDS011;30487;48.716;9.272;2022-12-07T15:52:09;7.03;;;3.20;;
44766;SDS011;30487;48.716;9.272;2022-12-07T15:54:35;6.10;;;2.75;;
44766;SDS011;30487;48.716;9.272;2022-12-07T15:57:01;6.68;;;2.92;;
44766;SDS011;30487;48.716;9.272;2022-12-07T15:59:27;4.80;;;2.83;;
44766;SDS011;30487;48.716;9.272;2022-12-07T16:01:53;6.35;;;3.15;;
44766;SDS011;30487;48.716;9.272;2022-12-07T16:04:19;7.82;;;3.53;;
44766;SDS011;30487;48.716;9.272;2022-12-07T16:06:45;6.70;;;3.40;;
44766;SDS011;30487;48.716;9.272;2022-12-07T16:09:15;6.43;;;3.33;;
44766;SDS011;30487;48.716;9.272;2022-12-07T16:11:41;5.45;;;3.00;;
44766;SDS011;30487;48.716;9.272;2022-12-07T16:14:07;5.70;;;3.15;;
44766;SDS011;30487;48.716;9.272;2022-12-07T16:16:32;5.28;;;3.13;;
44766;SDS011;30487;48.716;9.272;2022-12-07T16:18:58;6.18;;;3.28;;
44766;SDS011;30487;48.716;9.272;2022-12-07T16:21:23;5.72;;;2.95;;
44766;SDS011;30487;48.716;9.272;2022-12-07T16:23:49;5.30;;;3.03;;
44766;SDS011;30487;48.716;9.272;2022-12-07T16:26:16;7.65;;;3.45;;
44766;SDS011;30487;48.716;9.272;2022-12-07T16:28:44;5.82;;;3.33;;
44766;SDS011;30487;48.716;9.272;2022-12-07T16:32:07;6.97;;;3.30;;
44766;SDS011;30487;48.716;9.272;2022-12-07T16:34:32;7.00;;;3.33;;
44766;SDS011;30487;48.716;9.272;2022-12-07T16:36:58;7.78;;;3.67;;
44766;SDS011;30487;48.716;9.272;2022-12-07T16:39:23;7.93;;;3.30;;
44766;SDS011;30487;48.716;9.272;2022-12-07T16:41:49;6.43;;;3.42;;
44766;SDS011;30487;48.716;9.272;2022-12-07T16:44:15;5.75;;;3.00;;
44766;SDS011;30487;48.716;9.272;2022-12-07T16:46:41;7.65;;;4.00;;
44766;SDS011;30487;48.716;9.272;2022-12-07T16:49:11;6.55;;;3.50;;
44766;SDS011;30487;48.716;9.272;2022-12-07T16:51:38;9.57;;;4.05;;
44766;SDS011;30487;48.716;9.272;2022-12-07T16:54:04;8.32;;;4.28;;
44766;SDS011;30487;48.716;9.272;2022-12-07T16:56:29;8.48;;;4.50;;
44766;SDS011;30487;48.716;9.272;2022-12-07T16:58:57;8.38;;;4.30;;